Time;durP1;ratioP1;P1;durP2;ratioP2;P2;SDS_P1;SDS_P2;PMS_P1;PMS_P2;Temp;Humidity;BMP_temperature;BMP_pressure;BME280_temperature;BME280_humidity;BME280_pressure;Samples;Min_cycle;Max_cycle;Signal;HPM_P1;HPM_P2
2023/09/06 00:00:12;;;;;;;0.40;0.30;;;14.50;1.00;;;;;;4993737;28;20061;-79
2023/09/06 00:02:41;;;;;;;0.80;0.65;;;14.50;1.00;;;;;;4999024;28;20046;-79
2023/09/06 00:05:07;;;;;;;1.45;1.02;;;14.50;1.00;;;;;;4994193;28;20034;-78
2023/09/06 00:07:36;;;;;;;1.10;0.20;;;14.50;1.00;;;;;;4993771;28;20034;-79
2023/09/06 00:10:02;;;;;;;0.22;0.22;;;14.40;1.00;;;;;;4993795;28;20038;-78
2023/09/06 00:12:29;;;;;;;0.43;0.43;;;14.40;1.00;;;;;;4994067;28;20031;-78
2023/09/06 00:14:55;;;;;;;0.10;0.10;;;14.30;1.00;;;;;;4992537;28;20035;-80
2023/09/06 00:17:21;;;;;;;0.93;0.65;;;14.30;1.00;;;;;;4992786;28;20399;-78
2023/09/06 00:19:47;;;;;;;0.77;0.45;;;14.20;1.00;;;;;;4992829;28;20463;-79
2023/09/06 00:22:13;;;;;;;0.73;0.73;;;14.20;1.00;;;;;;4991117;28;20038;-79
2023/09/06 00:24:39;;;;;;;0.30;0.30;;;14.10;1.00;;;;;;4993241;28;20387;-78
2023/09/06 00:27:06;;;;;;;2.17;0.70;;;14.10;1.00;;;;;;4993488;28;20033;-79
2023/09/06 00:29:32;;;;;;;0.20;0.15;;;14.10;1.00;;;;;;4993319;28;20038;-78
2023/09/06 00:31:58;;;;;;;0.32;0.30;;;14.10;1.00;;;;;;4992578;28;20049;-78
2023/09/06 00:34:25;;;;;;;0.10;0.10;;;14.10;1.00;;;;;;4993620;28;20049;-78
2023/09/06 00:36:51;;;;;;;0.40;0.35;;;14.10;1.00;;;;;;4992743;28;20037;-78
2023/09/06 00:39:17;;;;;;;0.82;0.20;;;14.00;1.00;;;;;;4993493;28;20034;-78
2023/09/06 00:41:44;;;;;;;0.80;0.65;;;14.00;1.00;;;;;;4992883;28;20038;-77
2023/09/06 00:44:14;;;;;;;0.47;0.35;;;14.10;1.00;;;;;;4965960;28;20400;-78
2023/09/06 00:46:45;;;;;;;1.75;0.68;;;14.10;1.00;;;;;;4992573;28;20034;-78
2023/09/06 00:49:11;;;;;;;0.77;0.77;;;14.20;1.00;;;;;;4992668;28;20031;-78
2023/09/06 00:51:37;;;;;;;0.20;0.20;;;14.20;1.00;;;;;;4992378;28;20031;-79
2023/09/06 00:54:03;;;;;;;0.40;0.40;;;14.10;1.00;;;;;;4993026;28;20053;-78
2023/09/06 00:56:30;;;;;;;0.70;0.70;;;14.10;1.00;;;;;;4993240;28;20043;-78
2023/09/06 00:58:56;;;;;;;0.43;0.43;;;13.80;1.00;;;;;;4970730;28;20058;-78
2023/09/06 01:01:22;;;;;;;0.60;0.30;;;13.60;1.00;;;;;;4992559;28;20055;-78
2023/09/06 01:03:49;;;;;;;0.43;0.43;;;13.50;1.00;;;;;;4992346;28;20026;-78
2023/09/06 01:06:25;;;;;;;0.17;0.17;;;13.50;1.00;;;;;;4992421;28;20034;-78
2023/09/06 01:09:05;;;;;;;0.40;0.20;;;13.40;1.00;;;;;;4991546;28;20042;-79
2023/09/06 01:11:37;;;;;;;0.55;0.55;;;13.50;1.00;;;;;;4992211;28;20045;-79
2023/09/06 01:14:03;;;;;;;6.07;1.20;;;13.50;1.00;;;;;;4990827;28;20053;-79
2023/09/06 01:16:32;;;;;;;1.33;0.50;;;13.50;1.00;;;;;;4975263;28;20031;-79
2023/09/06 01:18:59;;;;;;;1.02;0.28;;;13.50;1.00;;;;;;4973073;28;20230;-78
2023/09/06 01:21:38;;;;;;;3.53;1.05;;;13.60;1.00;;;;;;4975025;28;20058;-78
2023/09/06 01:24:05;;;;;;;3.65;0.60;;;13.50;1.00;;;;;;4989458;28;20054;-78
2023/09/06 01:26:33;;;;;;;3.92;0.75;;;13.50;1.00;;;;;;4991789;28;20064;-79
2023/09/06 01:28:59;;;;;;;0.60;0.57;;;13.50;1.00;;;;;;4991840;28;20034;-78
2023/09/06 01:31:27;;;;;;;0.43;0.43;;;13.50;1.00;;;;;;4992366;28;20467;-78
2023/09/06 01:33:53;;;;;;;1.25;0.30;;;13.60;1.00;;;;;;4991789;28;20026;-79
2023/09/06 01:36:19;;;;;;;0.28;0.28;;;13.60;1.00;;;;;;4962296;28;20043;-78
2023/09/06 01:38:45;;;;;;;0.10;0.10;;;13.50;1.00;;;;;;4991731;28;20042;-78
2023/09/06 01:41:12;;;;;;;2.10;0.40;;;13.50;1.00;;;;;;4990548;28;20039;-79
2023/09/06 01:43:38;;;;;;;1.30;0.52;;;13.60;1.00;;;;;;4992195;28;20349;-78
2023/09/06 01:46:05;;;;;;;2.70;0.90;;;13.60;1.00;;;;;;4991825;28;20034;-79
2023/09/06 01:48:32;;;;;;;0.60;0.60;;;13.60;1.00;;;;;;4990779;28;20043;-79
2023/09/06 01:50:58;;;;;;;0.73;0.73;;;13.50;1.00;;;;;;4991545;28;20402;-78
2023/09/06 01:53:25;;;;;;;2.08;0.50;;;13.40;1.00;;;;;;4991521;28;20464;-79
2023/09/06 01:55:51;;;;;;;0.20;0.20;;;13.40;1.00;;;;;;4972215;28;20038;-79
2023/09/06 01:58:18;;;;;;;1.30;1.05;;;13.40;1.00;;;;;;4961628;28;20046;-78
2023/09/06 02:00:45;;;;;;;0.28;0.28;;;13.20;1.00;;;;;;4973339;28;20046;-78
2023/09/06 02:03:14;;;;;;;0.25;0.25;;;13.20;1.00;;;;;;4966157;28;20114;-78
2023/09/06 02:05:41;;;;;;;0.57;0.38;;;13.10;1.00;;;;;;4991965;28;20041;-81
2023/09/06 02:08:07;;;;;;;0.75;0.60;;;13.00;1.00;;;;;;4991710;28;20038;-79
2023/09/06 02:10:33;;;;;;;0.45;0.45;;;13.00;1.00;;;;;;4991992;28;20033;-78
2023/09/06 02:13:00;;;;;;;0.75;0.68;;;13.00;1.00;;;;;;4991276;28;20029;-78
2023/09/06 02:15:29;;;;;;;1.00;0.65;;;13.00;1.00;;;;;;4992028;28;20034;-78
2023/09/06 02:17:55;;;;;;;0.20;0.20;;;13.00;1.00;;;;;;4989959;28;20033;-78
2023/09/06 02:20:22;;;;;;;1.40;1.30;;;13.00;1.00;;;;;;4973173;28;20054;-77
2023/09/06 02:22:56;;;;;;;0.93;0.30;;;13.00;1.00;;;;;;4991322;28;20499;-77
2023/09/06 02:25:29;;;;;;;1.27;0.65;;;12.90;1.00;;;;;;4991697;28;20065;-78
2023/09/06 02:27:55;;;;;;;0.30;0.30;;;12.80;1.00;;;;;;4990041;28;20049;-78
2023/09/06 02:30:22;;;;;;;2.08;0.43;;;12.70;1.00;;;;;;4990188;28;20046;-78
2023/09/06 02:32:51;;;;;;;0.82;0.60;;;12.80;1.00;;;;;;4991107;28;20479;-79
2023/09/06 02:35:17;;;;;;;1.00;0.40;;;12.80;1.00;;;;;;4990476;28;20062;-78
2023/09/06 02:37:43;;;;;;;0.45;0.45;;;12.70;1.00;;;;;;4991763;28;20050;-79
2023/09/06 02:40:13;;;;;;;1.90;0.98;;;12.70;1.00;;;;;;4995614;28;20042;-77
2023/09/06 02:42:40;;;;;;;0.10;0.10;;;12.70;1.00;;;;;;4993534;28;20046;-79
2023/09/06 02:45:09;;;;;;;0.20;0.20;;;12.70;1.00;;;;;;4994554;28;20735;-78
2023/09/06 02:47:47;;;;;;;1.88;1.40;;;12.70;1.00;;;;;;4995552;28;20030;-78
2023/09/06 02:50:16;;;;;;;0.73;0.38;;;12.70;1.00;;;;;;4995382;28;20471;-78
2023/09/06 02:52:46;;;;;;;1.05;1.05;;;12.60;1.00;;;;;;4995335;28;20030;-78
2023/09/06 02:55:13;;;;;;;0.20;0.20;;;12.40;1.00;;;;;;4995049;28;20125;-79
2023/09/06 02:57:43;;;;;;;1.40;0.50;;;12.40;11.30;;;;;;4975763;28;20429;-78
2023/09/06 03:00:26;;;;;;;0.65;0.57;;;12.40;21.00;;;;;;4994036;28;20053;-80
2023/09/06 03:02:55;;;;;;;1.45;0.52;;;12.30;36.60;;;;;;4994240;28;20035;-78
2023/09/06 03:05:22;;;;;;;0.45;0.45;;;12.30;47.60;;;;;;4964467;28;20042;-78
2023/09/06 03:07:49;;;;;;;0.20;0.20;;;12.20;52.60;;;;;;4990688;28;20450;-78
2023/09/06 03:10:19;;;;;;;0.80;0.55;;;12.20;62.20;;;;;;4977434;28;20053;-78
2023/09/06 03:12:48;;;;;;;0.57;0.55;;;12.10;70.60;;;;;;4992527;28;20046;-79
2023/09/06 03:15:15;;;;;;;2.08;0.75;;;12.10;75.90;;;;;;4994085;28;20053;-80
2023/09/06 03:17:46;;;;;;;0.75;0.70;;;12.20;93.70;;;;;;4980189;28;20046;-79
2023/09/06 03:20:20;;;;;;;0.70;0.30;;;12.30;92.90;;;;;;4980437;28;20050;-78
2023/09/06 03:22:47;;;;;;;0.73;0.35;;;12.30;83.20;;;;;;4993787;28;20053;-79
2023/09/06 03:25:14;;;;;;;1.77;0.95;;;12.30;62.80;;;;;;4993009;28;20050;-78
2023/09/06 03:27:43;;;;;;;0.20;0.20;;;12.20;40.70;;;;;;4976327;28;20049;-79
2023/09/06 03:30:13;;;;;;;0.47;0.47;;;12.10;27.70;;;;;;4991549;28;20436;-78
2023/09/06 03:32:41;;;;;;;0.37;0.33;;;12.10;41.90;;;;;;4992988;28;20042;-78
2023/09/06 03:35:09;;;;;;;1.30;0.22;;;12.10;46.00;;;;;;4993818;28;20389;-78
2023/09/06 03:37:41;;;;;;;0.43;0.40;;;12.10;56.00;;;;;;4965400;28;20050;-78
2023/09/06 03:40:28;;;;;;;0.65;0.65;;;12.10;44.30;;;;;;4975987;28;20049;-79
2023/09/06 03:42:55;;;;;;;0.68;0.68;;;12.10;38.20;;;;;;4994125;28;20041;-78
2023/09/06 03:45:21;;;;;;;0.35;0.35;;;12.00;16.10;;;;;;4994424;28;20030;-78
2023/09/06 03:47:48;;;;;;;1.55;0.80;;;11.80;19.60;;;;;;4990989;28;20046;-78
2023/09/06 03:50:15;;;;;;;0.98;0.20;;;11.70;51.20;;;;;;4992100;28;20050;-77
2023/09/06 03:52:43;;;;;;;0.75;0.75;;;11.60;65.80;;;;;;4994460;28;20038;-75
2023/09/06 03:55:10;;;;;;;1.27;1.02;;;11.60;83.10;;;;;;4980335;28;20388;-78
2023/09/06 03:57:37;;;;;;;0.65;0.63;;;11.70;89.80;;;;;;4966949;28;20455;-77
2023/09/06 04:00:29;;;;;;;0.10;0.10;;;11.80;69.80;;;;;;4971290;28;20054;-78
2023/09/06 04:03:08;;;;;;;0.82;0.45;;;11.80;53.70;;;;;;4991599;28;20051;-78
2023/09/06 04:05:35;;;;;;;0.45;0.30;;;11.80;50.20;;;;;;4964392;28;20046;-79
2023/09/06 04:08:04;;;;;;;2.47;0.28;;;11.80;55.30;;;;;;4972774;28;20042;-79
2023/09/06 04:10:36;;;;;;;1.25;0.50;;;11.70;67.90;;;;;;4966385;28;20468;-79
2023/09/06 04:13:04;;;;;;;0.20;0.20;;;11.70;84.60;;;;;;4991912;28;20068;-79
2023/09/06 04:15:34;;;;;;;0.65;0.63;;;11.70;92.00;;;;;;4977708;28;20467;-79
2023/09/06 04:18:02;;;;;;;0.20;0.20;;;11.70;89.10;;;;;;4992900;28;20034;-79
2023/09/06 04:20:36;;;;;;;0.35;0.30;;;11.60;92.60;;;;;;4992359;28;20045;-79
2023/09/06 04:23:06;;;;;;;1.27;0.57;;;11.60;97.20;;;;;;4974164;28;20050;-80
2023/09/06 04:25:41;;;;;;;2.67;0.85;;;11.50;99.80;;;;;;4971183;28;20057;-79
2023/09/06 04:28:13;;;;;;;0.43;0.43;;;11.50;99.90;;;;;;4966151;28;20087;-80
2023/09/06 04:30:40;;;;;;;0.47;0.47;;;11.50;99.90;;;;;;4959120;28;20051;-80
2023/09/06 04:33:15;;;;;;;0.70;0.70;;;11.50;99.90;;;;;;4961003;28;20038;-80
2023/09/06 04:36:04;;;;;;;0.93;0.90;;;11.50;99.90;;;;;;4986726;28;20054;-80
2023/09/06 04:38:32;;;;;;;0.32;0.32;;;11.50;99.90;;;;;;4975204;28;20396;-80
2023/09/06 04:41:01;;;;;;;0.40;0.40;;;11.40;99.90;;;;;;4979983;28;20046;-80
2023/09/06 04:43:33;;;;;;;1.00;0.70;;;11.40;99.90;;;;;;4967788;28;20050;-79
2023/09/06 04:46:00;;;;;;;0.20;0.20;;;11.40;99.90;;;;;;4970973;28;20046;-80
2023/09/06 04:48:28;;;;;;;0.90;0.82;;;11.40;99.90;;;;;;4990226;28;20399;-80
2023/09/06 04:50:59;;;;;;;0.45;0.30;;;11.40;99.90;;;;;;4990369;28;20046;-80
2023/09/06 04:53:27;;;;;;;0.38;0.38;;;11.30;99.90;;;;;;4991158;28;20038;-79
2023/09/06 04:55:54;;;;;;;0.22;0.22;;;11.30;99.90;;;;;;4974565;28;20118;-80
2023/09/06 04:58:30;;;;;;;0.63;0.38;;;11.20;99.90;;;;;;4975204;28;20053;-80
2023/09/06 05:01:04;;;;;;;0.98;0.55;;;11.20;99.90;;;;;;4991965;28;20392;-79
2023/09/06 05:03:31;;;;;;;0.32;0.32;;;11.20;99.90;;;;;;4964259;28;20057;-80
2023/09/06 05:05:58;;;;;;;0.93;0.65;;;11.30;99.90;;;;;;4965235;28;20051;-80
2023/09/06 05:08:24;;;;;;;2.20;1.25;;;11.30;99.90;;;;;;4992617;28;20353;-79
2023/09/06 05:10:51;;;;;;;0.98;0.77;;;11.30;99.90;;;;;;4950996;28;20049;-79
2023/09/06 05:13:18;;;;;;;0.55;0.55;;;11.30;99.90;;;;;;4969763;28;20046;-79
2023/09/06 05:15:45;;;;;;;0.90;0.82;;;11.40;99.90;;;;;;4972368;28;20049;-79
2023/09/06 05:18:12;;;;;;;1.40;1.00;;;11.30;99.90;;;;;;4958190;28;20257;-80
2023/09/06 05:20:43;;;;;;;0.80;0.63;;;11.40;99.90;;;;;;4963795;28;20053;-79
2023/09/06 05:23:14;;;;;;;9.65;1.13;;;11.50;99.90;;;;;;4969009;28;20046;-80
2023/09/06 05:25:42;;;;;;;1.35;1.10;;;11.60;99.90;;;;;;4966144;28;20075;-79
2023/09/06 05:28:12;;;;;;;0.25;0.22;;;11.70;99.90;;;;;;4965090;28;20047;-80
2023/09/06 05:30:44;;;;;;;0.30;0.30;;;11.80;99.90;;;;;;4976379;28;20671;-82
2023/09/06 05:33:14;;;;;;;1.00;0.40;;;12.20;99.90;;;;;;4994313;28;20450;-82
2023/09/06 05:35:42;;;;;;;1.15;0.57;;;13.60;35.00;;;;;;4994235;28;20069;-82
2023/09/06 05:38:11;;;;;;;0.52;0.52;;;15.00;1.00;;;;;;4979754;28;20046;-82
2023/09/06 05:40:44;;;;;;;0.40;0.40;;;16.30;99.90;;;;;;4983978;28;20080;-83
2023/09/06 05:43:17;;;;;;;0.40;0.35;;;17.10;1.00;;;;;;4978713;28;20369;-83
2023/09/06 05:45:44;;;;;;;1.73;0.43;;;17.70;99.90;;;;;;4992373;28;20046;-83
2023/09/06 05:48:12;;;;;;;2.97;1.10;;;18.40;99.90;;;;;;4997390;28;20045;-84
2023/09/06 05:50:38;;;;;;;0.52;0.20;;;19.00;99.90;;;;;;4978005;28;20057;-83
2023/09/06 05:53:04;;;;;;;3.40;0.90;;;19.20;99.90;;;;;;4996693;28;20030;-83
2023/09/06 05:55:30;;;;;;;0.68;0.50;;;19.00;99.90;;;;;;4976132;28;20399;-83
2023/09/06 05:57:58;;;;;;;1.35;0.63;;;19.60;99.90;;;;;;4993975;28;20045;-83
2023/09/06 06:00:28;;;;;;;1.50;1.05;;;20.90;99.90;;;;;;4980060;28;20046;-83
2023/09/06 06:02:57;;;;;;;0.70;0.55;;;21.70;99.90;;;;;;4979551;28;20045;-83
2023/09/06 06:05:24;;;;;;;0.68;0.68;;;22.10;95.30;;;;;;4996450;28;20373;-83
2023/09/06 06:07:51;;;;;;;1.38;0.75;;;22.30;95.30;;;;;;4997402;28;20452;-83
2023/09/06 06:10:17;;;;;;;0.50;0.50;;;22.30;99.60;;;;;;4996115;28;20038;-84
2023/09/06 06:12:43;;;;;;;0.50;0.43;;;22.60;85.70;;;;;;4978463;28;20034;-84
2023/09/06 06:15:13;;;;;;;3.63;0.50;;;22.10;99.90;;;;;;4996487;28;20026;-84
2023/09/06 06:17:40;;;;;;;0.45;0.40;;;22.10;99.90;;;;;;4994637;28;20041;-84
2023/09/06 06:20:09;;;;;;;0.77;0.75;;;22.20;99.90;;;;;;4996216;28;20408;-84
2023/09/06 06:22:38;;;;;;;0.57;0.57;;;22.00;99.90;;;;;;4977383;28;20054;-83
2023/09/06 06:25:08;;;;;;;0.38;0.35;;;21.90;99.90;;;;;;4979127;28;20057;-84
2023/09/06 06:27:37;;;;;;;1.95;0.50;;;21.90;99.90;;;;;;4971688;28;20046;-84
2023/09/06 06:30:07;;;;;;;0.50;0.50;;;22.20;99.90;;;;;;4973231;28;20042;-84
2023/09/06 06:32:34;;;;;;;0.13;0.13;;;22.00;99.90;;;;;;4977339;28;20030;-84
2023/09/06 06:35:05;;;;;;;15.80;1.33;;;21.10;99.90;;;;;;4975990;28;20035;-84
2023/09/06 06:37:31;;;;;;;0.45;0.32;;;21.00;99.90;;;;;;4981144;28;20042;-83
2023/09/06 06:39:58;;;;;;;0.95;0.77;;;20.70;99.90;;;;;;4975888;28;20400;-84
2023/09/06 06:42:25;;;;;;;0.30;0.30;;;20.60;99.90;;;;;;4978458;28;20404;-84
2023/09/06 06:44:56;;;;;;;5.07;1.38;;;20.80;99.90;;;;;;4969567;28;20042;-83
2023/09/06 06:47:22;;;;;;;0.52;0.40;;;21.00;99.90;;;;;;4977213;28;20023;-84
2023/09/06 06:49:52;;;;;;;5.25;1.38;;;20.70;99.90;;;;;;4975617;28;20039;-84
2023/09/06 06:52:18;;;;;;;0.52;0.47;;;20.60;99.90;;;;;;4977488;28;20035;-83
2023/09/06 06:54:46;;;;;;;5.00;0.60;;;20.50;99.90;;;;;;4975933;28;20030;-84
2023/09/06 06:57:12;;;;;;;0.85;0.45;;;20.00;99.90;;;;;;4974578;28;20137;-85
2023/09/06 06:59:38;;;;;;;0.30;0.30;;;20.10;99.90;;;;;;4974193;28;20473;-84
2023/09/06 07:02:04;;;;;;;1.15;0.35;;;20.40;99.90;;;;;;4963058;28;20042;-83
2023/09/06 07:04:31;;;;;;;1.13;0.40;;;20.50;99.90;;;;;;4980689;28;20034;-84
2023/09/06 07:06:57;;;;;;;0.55;0.50;;;20.60;99.90;;;;;;4977806;28;20579;-85
2023/09/06 07:09:24;;;;;;;0.20;0.20;;;20.90;99.90;;;;;;4972410;28;20038;-85
2023/09/06 07:11:50;;;;;;;0.45;0.40;;;21.20;99.90;;;;;;4970352;28;20034;-85
2023/09/06 07:14:16;;;;;;;1.15;0.90;;;21.80;99.90;;;;;;4973266;28;20460;-85
2023/09/06 07:16:43;;;;;;;4.47;1.00;;;22.10;99.90;;;;;;4970719;28;20484;-85
2023/09/06 07:19:09;;;;;;;0.73;0.30;;;21.80;99.90;;;;;;4972237;28;20038;-85
2023/09/06 07:21:35;;;;;;;1.20;0.55;;;21.90;99.90;;;;;;4968559;28;20063;-86
2023/09/06 07:24:01;;;;;;;1.27;0.90;;;21.60;99.90;;;;;;4988350;28;20491;-85
2023/09/06 07:26:27;;;;;;;1.35;0.40;;;21.60;99.90;;;;;;4977230;28;20033;-85
2023/09/06 07:28:53;;;;;;;0.30;0.30;;;21.60;99.90;;;;;;4993942;28;20050;-85
2023/09/06 07:31:20;;;;;;;0.60;0.60;;;22.20;99.90;;;;;;4992764;28;20030;-85
2023/09/06 07:33:46;;;;;;;0.20;0.20;;;22.30;99.90;;;;;;4994487;28;20038;-86
2023/09/06 07:36:14;;;;;;;1.80;0.47;;;22.40;99.90;;;;;;4993924;28;20034;-86
2023/09/06 07:38:40;;;;;;;0.20;0.20;;;22.30;99.90;;;;;;4998228;28;20042;-86
2023/09/06 07:41:07;;;;;;;0.88;0.55;;;21.90;99.90;;;;;;4991590;28;20475;-85
2023/09/06 07:43:35;;;;;;;0.40;0.40;;;22.20;99.90;;;;;;4994439;28;20448;-83
2023/09/06 07:46:02;;;;;;;1.02;0.45;;;22.80;87.50;;;;;;4993510;28;20034;-83
2023/09/06 07:48:30;;;;;;;0.20;0.20;;;23.00;85.20;;;;;;4993578;28;20034;-85
2023/09/06 07:50:58;;;;;;;0.10;0.10;;;23.00;60.80;;;;;;4981926;28;20030;-84
2023/09/06 07:53:25;;;;;;;0.13;0.13;;;23.40;28.20;;;;;;4998792;28;20022;-82
2023/09/06 07:55:53;;;;;;;0.80;0.68;;;23.40;12.90;;;;;;4996695;28;20057;-84
2023/09/06 07:58:19;;;;;;;0.22;0.20;;;23.30;27.60;;;;;;4993249;28;20038;-84
2023/09/06 08:00:46;;;;;;;0.93;0.35;;;23.50;63.20;;;;;;4996725;28;20411;-84
2023/09/06 08:03:14;;;;;;;0.43;0.43;;;23.90;18.50;;;;;;4997231;28;20110;-84
2023/09/06 08:05:40;;;;;;;0.52;0.45;;;23.90;20.80;;;;;;5010043;28;20034;-84
2023/09/06 08:08:11;;;;;;;0.40;0.40;;;23.70;12.60;;;;;;4998010;28;20057;-84
2023/09/06 08:10:39;;;;;;;0.30;0.30;;;23.70;35.60;;;;;;5000470;28;20045;-85
2023/09/06 08:13:06;;;;;;;0.85;0.70;;;24.30;1.00;;;;;;4994550;28;20034;-84
2023/09/06 08:15:33;;;;;;;1.25;0.45;;;24.50;1.00;;;;;;5003329;28;20034;-84
2023/09/06 08:17:59;;;;;;;0.15;0.15;;;24.10;1.00;;;;;;4996909;28;20022;-84
2023/09/06 08:20:26;;;;;;;0.55;0.43;;;23.10;1.00;;;;;;4994600;28;20034;-84
2023/09/06 08:22:52;;;;;;;2.10;0.98;;;23.20;1.00;;;;;;4999582;28;20061;-85
2023/09/06 08:25:19;;;;;;;1.02;0.82;;;23.80;1.00;;;;;;4993326;28;20043;-84
2023/09/06 08:27:45;;;;;;;0.17;0.17;;;23.90;1.00;;;;;;4993694;28;20022;-84
2023/09/06 08:30:14;;;;;;;0.10;0.10;;;24.20;1.00;;;;;;5000465;28;20034;-83
2023/09/06 08:32:42;;;;;;;0.45;0.30;;;24.40;1.00;;;;;;4996022;28;20157;-84
2023/09/06 08:35:09;;;;;;;0.30;0.30;;;24.40;1.00;;;;;;4994731;28;20057;-83
2023/09/06 08:37:35;;;;;;;0.20;0.20;;;24.70;1.00;;;;;;4991828;28;20034;-84
2023/09/06 08:40:05;;;;;;;0.45;0.45;;;25.40;1.00;;;;;;4991532;28;20046;-89
2023/09/06 08:42:35;;;;;;;0.30;0.30;;;25.50;1.00;;;;;;4996970;28;20027;-84
2023/09/06 08:45:05;;;;;;;0.35;0.35;;;25.20;1.00;;;;;;4993730;28;20034;-85
2023/09/06 08:47:32;;;;;;;0.40;0.40;;;24.90;1.00;;;;;;4993318;28;20034;-85
2023/09/06 08:50:00;;;;;;;0.50;0.43;;;25.10;1.00;;;;;;4989113;28;20365;-84
2023/09/06 08:52:27;;;;;;;1.67;0.85;;;24.90;1.00;;;;;;4992566;28;20037;-84
2023/09/06 08:54:54;;;;;;;2.08;0.20;;;24.90;1.00;;;;;;5007411;28;20038;-83
2023/09/06 08:57:21;;;;;;;0.57;0.57;;;25.40;1.00;;;;;;5004832;28;20030;-82
2023/09/06 08:59:48;;;;;;;0.80;0.80;;;25.00;1.00;;;;;;4997846;28;20050;-85
2023/09/06 09:02:16;;;;;;;0.20;0.20;;;25.80;1.00;;;;;;4975066;28;20041;-84
2023/09/06 09:04:42;;;;;;;0.30;0.30;;;25.80;1.00;;;;;;4992875;28;20026;-83
2023/09/06 09:07:10;;;;;;;0.30;0.30;;;26.80;1.00;;;;;;4967256;28;20340;-84
2023/09/06 09:09:56;;;;;;;0.35;0.35;;;27.30;1.00;;;;;;4992048;28;20395;-84
2023/09/06 09:12:24;;;;;;;0.30;0.30;;;27.60;1.00;;;;;;4994616;28;20383;-85
2023/09/06 09:14:50;;;;;;;0.20;0.20;;;27.20;1.00;;;;;;4989753;28;20041;-84
2023/09/06 09:17:20;;;;;;;0.60;0.40;;;27.40;1.00;;;;;;4991081;28;20376;-84
2023/09/06 09:19:54;;;;;;;0.45;0.45;;;27.40;1.00;;;;;;4972311;28;20038;-87
2023/09/06 09:22:22;;;;;;;0.30;0.30;;;26.90;1.00;;;;;;4994003;28;20591;-83
2023/09/06 09:24:48;;;;;;;1.27;0.80;;;27.00;1.00;;;;;;4993955;28;20037;-84
2023/09/06 09:27:17;;;;;;;0.50;0.40;;;27.40;1.00;;;;;;4999217;28;20045;-83
2023/09/06 09:29:44;;;;;;;0.20;0.20;;;26.80;1.00;;;;;;4993237;28;20483;-85
2023/09/06 09:32:13;;;;;;;1.02;0.47;;;27.00;1.00;;;;;;4999386;28;20046;-85
2023/09/06 09:34:41;;;;;;;1.03;0.80;;;27.20;1.00;;;;;;4998744;28;20045;-83
2023/09/06 09:37:11;;;;;;;0.30;0.30;;;27.10;1.00;;;;;;4994383;28;20045;-84
2023/09/06 09:39:37;;;;;;;1.25;0.60;;;26.50;1.00;;;;;;4996724;28;20038;-83
2023/09/06 09:42:10;;;;;;;0.90;0.38;;;26.60;1.00;;;;;;4999195;28;20034;-82
2023/09/06 09:44:38;;;;;;;0.47;0.47;;;26.40;1.00;;;;;;4979264;28;20053;-81
2023/09/06 09:47:13;;;;;;;0.30;0.30;;;26.40;1.00;;;;;;4971762;28;20488;-82
2023/09/06 09:49:40;;;;;;;0.73;0.45;;;26.50;1.00;;;;;;4993397;28;20487;-88
2023/09/06 09:52:12;;;;;;;0.65;0.65;;;26.70;1.00;;;;;;4997619;28;20037;-83
2023/09/06 09:54:45;;;;;;;0.20;0.20;;;26.20;1.00;;;;;;4996871;28;20042;-82
2023/09/06 09:57:13;;;;;;;0.30;0.30;;;26.20;1.00;;;;;;4996114;28;20506;-83
2023/09/06 09:59:40;;;;;;;0.45;0.45;;;26.10;1.00;;;;;;4997721;28;20464;-83
2023/09/06 10:02:15;;;;;;;0.82;0.80;;;26.20;1.00;;;;;;4996705;28;20046;-86
2023/09/06 10:04:43;;;;;;;0.75;0.75;;;26.30;1.00;;;;;;4988925;28;20471;-84
2023/09/06 10:07:11;;;;;;;0.50;0.50;;;25.90;1.00;;;;;;4997842;28;20039;-83
2023/09/06 10:09:39;;;;;;;1.08;0.85;;;25.70;1.00;;;;;;4981816;28;20046;-82
2023/09/06 10:12:08;;;;;;;0.30;0.30;;;25.80;1.00;;;;;;4993289;28;20472;-82
2023/09/06 10:14:40;;;;;;;1.88;0.75;;;25.80;1.00;;;;;;4994546;28;20041;-84
2023/09/06 10:17:08;;;;;;;0.73;0.73;;;25.90;1.00;;;;;;4994585;28;20031;-84
2023/09/06 10:19:36;;;;;;;0.43;0.40;;;25.90;1.00;;;;;;4989619;28;20042;-83
2023/09/06 10:22:05;;;;;;;1.17;0.98;;;25.80;1.00;;;;;;4991258;28;20472;-81
2023/09/06 10:24:34;;;;;;;0.32;0.32;;;25.80;1.00;;;;;;4990882;28;20042;-87
2023/09/06 10:27:03;;;;;;;0.98;0.68;;;25.90;1.00;;;;;;4991232;28;20030;-79
2023/09/06 10:29:30;;;;;;;0.88;0.68;;;25.80;1.00;;;;;;4989951;28;20558;-85
2023/09/06 10:32:03;;;;;;;1.98;0.50;;;25.80;1.00;;;;;;4991164;28;20499;-80
2023/09/06 10:34:33;;;;;;;0.45;0.45;;;25.90;1.00;;;;;;4990484;28;20053;-79
2023/09/06 10:37:03;;;;;;;0.68;0.65;;;25.90;1.00;;;;;;4991522;28;20452;-81
2023/09/06 10:39:30;;;;;;;0.43;0.43;;;26.20;1.00;;;;;;4990314;28;20034;-80
2023/09/06 10:42:09;;;;;;;0.47;0.47;;;26.10;1.00;;;;;;4974092;28;20030;-82
2023/09/06 10:44:56;;;;;;;0.68;0.55;;;26.10;1.00;;;;;;4989624;28;20134;-81
2023/09/06 10:47:36;;;;;;;0.70;0.45;;;26.40;1.00;;;;;;4973048;28;20057;-81
2023/09/06 10:50:07;;;;;;;2.28;0.80;;;26.40;1.00;;;;;;4989346;28;20400;-79
2023/09/06 10:52:49;;;;;;;8.27;1.20;;;26.40;1.00;;;;;;4988327;28;20035;-86
2023/09/06 10:55:18;;;;;;;0.82;0.40;;;26.30;1.00;;;;;;4989988;28;20045;-82
2023/09/06 10:58:08;;;;;;;0.20;0.20;;;26.50;1.00;;;;;;4991524;28;20043;-81
2023/09/06 11:00:35;;;;;;;0.75;0.40;;;26.40;1.00;;;;;;4991361;28;20399;-83
2023/09/06 11:03:07;;;;;;;0.73;0.50;;;26.40;1.00;;;;;;4991905;28;20030;-78
2023/09/06 11:05:50;;;;;;;0.35;0.35;;;26.40;1.00;;;;;;4994575;28;20053;-82
2023/09/06 11:08:29;;;;;;;1.02;0.80;;;26.50;1.00;;;;;;4995494;28;20053;-82
2023/09/06 11:11:00;;;;;;;0.28;0.28;;;26.50;1.00;;;;;;4995592;28;20045;-82
2023/09/06 11:13:30;;;;;;;1.00;0.95;;;26.60;1.00;;;;;;4999667;28;20029;-82
2023/09/06 11:15:56;;;;;;;1.17;0.50;;;26.70;1.00;;;;;;5000493;28;20042;-82
2023/09/06 11:18:22;;;;;;;6.53;1.40;;;26.60;1.00;;;;;;4995312;28;20044;-82
2023/09/06 11:20:50;;;;;;;0.20;0.20;;;26.80;1.00;;;;;;5001483;28;20414;-85
2023/09/06 11:23:16;;;;;;;0.43;0.40;;;26.80;1.00;;;;;;4994698;28;20429;-81
2023/09/06 11:25:44;;;;;;;0.73;0.73;;;26.90;1.00;;;;;;4995523;28;20055;-82
2023/09/06 11:28:18;;;;;;;1.05;0.75;;;27.00;1.00;;;;;;4995475;28;20031;-82
2023/09/06 11:30:49;;;;;;;0.30;0.30;;;27.20;1.00;;;;;;4993197;28;20030;-85
2023/09/06 11:33:17;;;;;;;0.65;0.65;;;27.00;1.00;;;;;;4993904;28;20391;-81
2023/09/06 11:35:51;;;;;;;1.08;0.90;;;26.90;1.00;;;;;;4993521;28;20053;-82
2023/09/06 11:38:23;;;;;;;0.70;0.52;;;27.00;1.00;;;;;;4993624;28;20049;-80
2023/09/06 11:40:51;;;;;;;0.35;0.30;;;27.10;1.00;;;;;;4993285;28;20042;-80
2023/09/06 11:43:23;;;;;;;1.70;0.55;;;27.20;1.00;;;;;;4993821;28;20034;-82
2023/09/06 11:45:53;;;;;;;0.30;0.30;;;27.40;1.00;;;;;;4993860;28;20045;-84
2023/09/06 11:48:27;;;;;;;2.75;0.40;;;27.50;1.00;;;;;;4991269;28;20034;-83
2023/09/06 11:51:05;;;;;;;0.30;0.30;;;27.60;1.00;;;;;;4993459;28;20047;-88
2023/09/06 11:53:32;;;;;;;1.23;0.40;;;27.70;1.00;;;;;;4993764;28;20104;-85
2023/09/06 11:56:05;;;;;;;1.65;0.75;;;27.60;1.00;;;;;;5004225;28;20026;-85
2023/09/06 11:58:32;;;;;;;0.20;0.20;;;27.60;1.00;;;;;;5006090;28;20041;-83
2023/09/06 12:01:01;;;;;;;0.85;0.50;;;27.60;1.00;;;;;;4995817;28;20030;-83
2023/09/06 12:03:33;;;;;;;0.50;0.50;;;27.70;1.00;;;;;;4994639;28;20391;-88
2023/09/06 12:06:00;;;;;;;0.10;0.10;;;27.80;1.00;;;;;;4997347;28;20048;-84
2023/09/06 12:08:29;;;;;;;1.75;0.57;;;27.60;1.00;;;;;;4998686;28;20030;-83
2023/09/06 12:11:06;;;;;;;0.63;0.50;;;27.40;1.00;;;;;;4992063;28;20040;-82
2023/09/06 12:13:37;;;;;;;1.17;0.22;;;27.30;1.00;;;;;;4993417;28;20408;-83
2023/09/06 12:16:08;;;;;;;1.20;0.57;;;27.70;1.00;;;;;;4993948;28;20098;-82
2023/09/06 12:18:35;;;;;;;0.40;0.40;;;27.80;1.00;;;;;;4993147;28;20038;-83
2023/09/06 12:21:03;;;;;;;1.00;0.68;;;28.00;1.00;;;;;;4993080;28;20400;-82
2023/09/06 12:23:29;;;;;;;0.50;0.47;;;28.00;1.00;;;;;;4992831;28;20062;-81
2023/09/06 12:25:57;;;;;;;0.70;0.70;;;28.20;1.00;;;;;;4993006;28;20053;-81
2023/09/06 12:28:23;;;;;;;0.73;0.50;;;28.30;1.00;;;;;;4989842;28;20045;-81
2023/09/06 12:30:58;;;;;;;2.70;1.15;;;28.20;1.00;;;;;;4992223;28;20042;-81
2023/09/06 12:33:24;;;;;;;0.38;0.38;;;28.00;1.00;;;;;;4992284;28;20030;-82
2023/09/06 12:35:58;;;;;;;1.05;0.40;;;28.10;1.00;;;;;;4993313;28;20035;-83
2023/09/06 12:38:29;;;;;;;0.57;0.55;;;28.20;1.00;;;;;;4992869;28;20030;-87
2023/09/06 12:40:56;;;;;;;0.55;0.55;;;28.00;1.00;;;;;;4990300;28;20049;-82
2023/09/06 12:43:24;;;;;;;0.17;0.10;;;27.80;1.00;;;;;;4993001;28;20038;-82
2023/09/06 12:45:53;;;;;;;0.20;0.20;;;28.00;1.00;;;;;;4953959;28;20051;-80
2023/09/06 12:48:24;;;;;;;0.35;0.35;;;28.40;1.00;;;;;;4991110;28;20484;-88
2023/09/06 12:50:51;;;;;;;0.93;0.68;;;28.60;1.00;;;;;;4992026;28;20041;-85
2023/09/06 12:53:17;;;;;;;0.43;0.43;;;28.40;1.00;;;;;;4992956;28;20472;-82
2023/09/06 12:55:45;;;;;;;1.38;0.77;;;28.30;1.00;;;;;;4992932;28;20030;-79
2023/09/06 12:58:12;;;;;;;0.40;0.40;;;28.40;1.00;;;;;;4990170;28;20037;-82
2023/09/06 13:00:38;;;;;;;1.23;0.68;;;28.40;1.00;;;;;;4991061;28;20027;-81